createdAt,value
2022-09-15T00:00:00.240Z,100460
2022-09-15T00:01:00.157Z,100460
2022-09-15T00:02:00.229Z,100470
2022-09-15T00:03:00.215Z,100470
2022-09-15T00:04:00.367Z,100460
2022-09-15T00:05:00.148Z,100460
2022-09-15T00:06:00.480Z,100460
2022-09-15T00:07:00.152Z,100460
2022-09-15T00:08:00.243Z,100460
2022-09-15T00:09:00.695Z,100460
2022-09-15T00:10:00.343Z,100460
2022-09-15T00:11:03.987Z,100460
2022-09-15T00:12:00.263Z,100460
2022-09-15T00:13:00.192Z,100460
2022-09-15T00:14:01.304Z,100460
2022-09-15T00:15:00.186Z,100460
2022-09-15T00:16:00.240Z,100460
2022-09-15T00:17:00.320Z,100460
2022-09-15T00:18:00.152Z,100460
2022-09-15T00:19:00.636Z,100460
2022-09-15T00:20:00.249Z,100450
2022-09-15T00:21:03.829Z,100450
2022-09-15T00:22:00.248Z,100450
2022-09-15T00:23:00.150Z,100450
2022-09-15T00:24:00.784Z,100450
2022-09-15T00:25:00.153Z,100450
2022-09-15T00:26:00.194Z,100450
2022-09-15T00:27:00.269Z,100450
2022-09-15T00:28:00.231Z,100460
2022-09-15T00:29:00.958Z,100460
2022-09-15T00:30:00.580Z,100460
2022-09-15T00:31:03.181Z,100460
2022-09-15T00:32:00.363Z,100450
2022-09-15T00:33:00.149Z,100450
2022-09-15T00:34:00.722Z,100460
2022-09-15T00:35:00.166Z,100460
2022-09-15T00:36:01.745Z,100450
2022-09-15T00:37:00.152Z,100450
2022-09-15T00:38:00.155Z,100450
2022-09-15T00:39:00.280Z,100450
2022-09-15T00:40:00.320Z,100440
2022-09-15T00:41:00.731Z,100440
2022-09-15T00:42:00.161Z,100450
2022-09-15T00:43:00.169Z,100450
2022-09-15T00:44:03.018Z,100440
2022-09-15T00:45:01.337Z,100440
2022-09-15T00:46:00.266Z,100440
2022-09-15T00:47:18.315Z,100440
2022-09-15T00:48:00.359Z,100450
2022-09-15T00:49:10.052Z,100440
2022-09-15T00:50:04.107Z,100440
2022-09-15T00:51:02.028Z,100440
2022-09-15T00:52:03.566Z,100450
2022-09-15T00:53:02.326Z,100450
2022-09-15T00:54:01.799Z,100450
2022-09-15T00:55:10.106Z,100450
2022-09-15T00:56:01.323Z,100450
2022-09-15T00:57:03.453Z,100450
2022-09-15T00:58:02.756Z,100450
2022-09-15T00:59:02.480Z,100450
2022-09-15T01:00:02.932Z,100450
2022-09-15T01:01:01.403Z,100450
2022-09-15T01:02:03.084Z,100450
2022-09-15T01:03:00.607Z,100450
2022-09-15T01:04:00.555Z,100450
2022-09-15T01:05:01.696Z,100450
2022-09-15T01:06:06.126Z,100450
2022-09-15T01:07:02.937Z,100450
2022-09-15T01:08:04.857Z,100450
2022-09-15T01:09:03.263Z,100450
2022-09-15T01:10:03.561Z,100450
2022-09-15T01:11:00.465Z,100450
2022-09-15T01:12:01.227Z,100450
2022-09-15T01:13:01.587Z,100450
2022-09-15T01:14:00.286Z,100460
2022-09-15T01:15:00.490Z,100460
2022-09-15T01:16:01.232Z,100460
2022-09-15T01:17:10.098Z,100450
2022-09-15T01:18:10.094Z,100450
2022-09-15T01:19:03.417Z,100450
2022-09-15T01:20:00.238Z,100460
2022-09-15T01:21:10.100Z,100460
2022-09-15T01:22:10.096Z,100460
2022-09-15T01:23:03.396Z,100460
2022-09-15T01:24:03.445Z,100470
2022-09-15T01:25:05.114Z,100470
2022-09-15T01:26:10.101Z,100470
2022-09-15T01:27:30.937Z,100460
2022-09-15T01:28:10.109Z,100460
2022-09-15T01:29:00.163Z,100460
2022-09-15T01:30:10.118Z,100460
2022-09-15T01:31:07.125Z,100460
2022-09-15T01:32:10.098Z,100460
2022-09-15T01:33:08.223Z,100460
2022-09-15T01:34:05.052Z,100460
2022-09-15T01:35:05.822Z,100460
2022-09-15T01:36:10.100Z,100460
2022-09-15T01:37:02.877Z,100460
2022-09-15T01:38:05.279Z,100460
2022-09-15T01:39:08.090Z,100460
2022-09-15T01:40:01.348Z,100460
2022-09-15T01:41:04.498Z,100460
2022-09-15T01:42:02.908Z,100460
2022-09-15T01:43:00.710Z,100460
2022-09-15T01:44:05.356Z,100450
2022-09-15T01:45:04.011Z,100450
2022-09-15T01:46:01.381Z,100450
2022-09-15T01:47:03.097Z,100450
2022-09-15T01:48:01.270Z,100440
2022-09-15T01:49:01.001Z,100440
2022-09-15T01:50:04.846Z,100450
2022-09-15T01:51:01.312Z,100450
2022-09-15T01:52:00.566Z,100450
2022-09-15T01:53:01.680Z,100450
2022-09-15T01:54:01.456Z,100450
2022-09-15T01:55:04.360Z,100450
2022-09-15T01:56:10.090Z,100450
2022-09-15T01:57:01.251Z,100450
2022-09-15T01:58:00.150Z,100450
2022-09-15T01:59:00.196Z,100450
2022-09-15T02:00:00.267Z,100450
2022-09-15T02:01:10.205Z,100450
2022-09-15T02:02:02.715Z,100450
2022-09-15T02:03:03.932Z,100450
2022-09-15T02:04:03.877Z,100440
2022-09-15T02:05:04.315Z,100440
2022-09-15T02:06:04.239Z,100440
2022-09-15T02:07:05.081Z,100440
2022-09-15T02:08:04.179Z,100450
2022-09-15T02:09:03.115Z,100450
2022-09-15T02:10:07.813Z,100450
2022-09-15T02:11:09.767Z,100440
2022-09-15T02:12:07.516Z,100440
2022-09-15T02:13:00.138Z,100440
2022-09-15T02:14:06.184Z,100440
2022-09-15T02:15:04.952Z,100440
2022-09-15T02:16:00.384Z,100450
2022-09-15T02:17:00.192Z,100450
2022-09-15T02:18:01.279Z,100450
2022-09-15T02:19:10.100Z,100450
2022-09-15T02:20:10.115Z,100450
2022-09-15T02:21:04.874Z,100450
2022-09-15T02:22:03.406Z,100450
2022-09-15T02:23:03.929Z,100450
2022-09-15T02:24:04.673Z,100450
2022-09-15T02:25:02.829Z,100450
2022-09-15T02:26:03.826Z,100450
2022-09-15T02:27:02.573Z,100450
2022-09-15T02:28:03.328Z,100450
2022-09-15T02:29:04.008Z,100450
2022-09-15T02:30:02.384Z,100460
2022-09-15T02:31:02.668Z,100460
2022-09-15T02:32:05.093Z,100450
2022-09-15T02:33:02.580Z,100450
2022-09-15T02:34:02.400Z,100450
2022-09-15T02:35:01.868Z,100450
2022-09-15T02:36:01.165Z,100450
2022-09-15T02:37:00.884Z,100450
2022-09-15T02:38:01.405Z,100450
2022-09-15T02:39:03.471Z,100450
2022-09-15T02:40:00.805Z,100450
2022-09-15T02:41:00.217Z,100450
2022-09-15T02:42:00.523Z,100450
2022-09-15T02:43:01.314Z,100450
2022-09-15T02:44:00.249Z,100450
2022-09-15T02:45:00.228Z,100450
2022-09-15T02:46:00.255Z,100440
2022-09-15T02:47:00.380Z,100440
2022-09-15T02:48:00.214Z,100440
2022-09-15T02:49:00.191Z,100440
2022-09-15T02:50:00.207Z,100440
2022-09-15T02:51:00.162Z,100440
2022-09-15T02:52:00.204Z,100450
2022-09-15T02:53:00.172Z,100450
2022-09-15T02:54:00.162Z,100450
2022-09-15T02:55:00.159Z,100450
2022-09-15T02:56:00.230Z,100450
2022-09-15T02:57:00.251Z,100450
2022-09-15T02:58:00.203Z,100450
2022-09-15T02:59:00.166Z,100450
2022-09-15T03:00:00.259Z,100450
2022-09-15T03:01:01.380Z,100450
2022-09-15T03:02:00.201Z,100450
2022-09-15T03:03:00.145Z,100450
2022-09-15T03:04:00.898Z,100450
2022-09-15T03:05:00.172Z,100450
2022-09-15T03:06:00.306Z,100450
2022-09-15T03:07:00.148Z,100450
2022-09-15T03:08:00.228Z,100450
2022-09-15T03:09:01.573Z,100450
2022-09-15T03:10:00.158Z,100450
2022-09-15T03:11:00.151Z,100450
2022-09-15T03:12:00.218Z,100450
2022-09-15T03:13:00.212Z,100450
2022-09-15T03:14:01.395Z,100460
2022-09-15T03:15:00.148Z,100460
2022-09-15T03:16:05.768Z,100460
2022-09-15T03:17:01.670Z,100460
2022-09-15T03:18:00.796Z,100460
2022-09-15T03:19:00.156Z,100460
2022-09-15T03:20:00.186Z,100460
2022-09-15T03:21:00.146Z,100460
2022-09-15T03:22:00.148Z,100470
2022-09-15T03:23:00.155Z,100470
2022-09-15T03:24:00.257Z,100470
2022-09-15T03:25:00.153Z,100470
2022-09-15T03:26:00.412Z,100470
2022-09-15T03:27:00.155Z,100470
2022-09-15T03:28:00.203Z,100470
2022-09-15T03:29:00.185Z,100470
2022-09-15T03:30:00.175Z,100480
2022-09-15T03:31:00.275Z,100480
2022-09-15T03:32:00.376Z,100480
2022-09-15T03:33:00.145Z,100480
2022-09-15T03:34:00.155Z,100480
2022-09-15T03:35:00.181Z,100480
2022-09-15T03:36:00.236Z,100480
2022-09-15T03:37:00.167Z,100480
2022-09-15T03:38:00.152Z,100490
2022-09-15T03:39:00.313Z,100490
2022-09-15T03:40:00.381Z,100490
2022-09-15T03:41:01.571Z,100490
2022-09-15T03:42:00.151Z,100490
2022-09-15T03:43:00.142Z,100490
2022-09-15T03:44:00.221Z,100490
2022-09-15T03:45:00.146Z,100490
2022-09-15T03:46:00.565Z,100490
2022-09-15T03:47:00.483Z,100490
2022-09-15T03:48:00.231Z,100500
2022-09-15T03:49:00.149Z,100500
2022-09-15T03:50:00.182Z,100490
2022-09-15T03:51:00.818Z,100490
2022-09-15T03:52:00.269Z,100490
2022-09-15T03:53:00.490Z,100490
2022-09-15T03:54:00.200Z,100500
2022-09-15T03:55:00.153Z,100500
2022-09-15T03:56:07.673Z,100500
2022-09-15T03:57:00.187Z,100500
2022-09-15T03:58:00.168Z,100500
2022-09-15T03:59:00.847Z,100500
2022-09-15T04:00:00.241Z,100490
2022-09-15T04:01:00.261Z,100490
2022-09-15T04:02:00.248Z,100490
2022-09-15T04:03:00.150Z,100490
2022-09-15T04:04:00.487Z,100490
2022-09-15T04:05:00.155Z,100490
2022-09-15T04:06:00.172Z,100480
2022-09-15T04:07:00.146Z,100480
2022-09-15T04:08:00.203Z,100480
2022-09-15T04:09:00.155Z,100480
2022-09-15T04:10:00.148Z,100480
2022-09-15T04:11:04.819Z,100480
2022-09-15T04:12:00.224Z,100480
2022-09-15T04:13:00.146Z,100480
2022-09-15T04:14:00.154Z,100470
2022-09-15T04:15:00.242Z,100470
2022-09-15T04:16:01.803Z,100470
2022-09-15T04:17:00.157Z,100470
2022-09-15T04:18:00.232Z,100470
2022-09-15T04:19:00.159Z,100470
2022-09-15T04:20:00.265Z,100470
2022-09-15T04:21:01.279Z,100470
2022-09-15T04:22:00.162Z,100470
2022-09-15T04:23:00.159Z,100470
2022-09-15T04:24:00.240Z,100480
2022-09-15T04:25:00.150Z,100480
2022-09-15T04:26:01.446Z,100480
2022-09-15T04:27:00.172Z,100480
2022-09-15T04:28:00.267Z,100480
2022-09-15T04:29:03.970Z,100480
2022-09-15T04:30:00.193Z,100480
2022-09-15T04:31:09.286Z,100480
2022-09-15T04:32:00.247Z,100480
2022-09-15T04:33:00.155Z,100480
2022-09-15T04:34:00.430Z,100480
2022-09-15T04:35:00.439Z,100480
2022-09-15T04:36:01.296Z,100480
2022-09-15T04:37:00.173Z,100480
2022-09-15T04:38:00.154Z,100480
2022-09-15T04:39:00.378Z,100480
2022-09-15T04:40:00.325Z,100480
2022-09-15T04:41:00.820Z,100480
2022-09-15T04:42:00.163Z,100480
2022-09-15T04:43:00.151Z,100480
2022-09-15T04:44:00.264Z,100480
2022-09-15T04:45:00.224Z,100480
2022-09-15T04:46:00.481Z,100480
2022-09-15T04:47:00.475Z,100480
2022-09-15T04:48:00.234Z,100480
2022-09-15T04:49:00.154Z,100480
2022-09-15T04:50:00.168Z,100480
2022-09-15T04:51:01.099Z,100480
2022-09-15T04:52:00.269Z,100480
2022-09-15T04:53:00.152Z,100480
2022-09-15T04:54:00.172Z,100480
2022-09-15T04:55:00.150Z,100480
2022-09-15T04:56:02.146Z,100480
2022-09-15T04:57:00.487Z,100480
2022-09-15T04:58:00.511Z,100480
2022-09-15T04:59:04.014Z,100480
2022-09-15T05:00:00.242Z,100480
2022-09-15T05:01:05.340Z,100480
2022-09-15T05:02:00.274Z,100480
2022-09-15T05:03:00.151Z,100480
2022-09-15T05:04:01.061Z,100480
2022-09-15T05:05:00.151Z,100480
2022-09-15T05:06:00.152Z,100480
2022-09-15T05:07:00.166Z,100480
2022-09-15T05:08:00.391Z,100480
2022-09-15T05:09:01.202Z,100480
2022-09-15T05:10:00.168Z,100480
2022-09-15T05:11:01.128Z,100480
2022-09-15T05:12:00.274Z,100480
2022-09-15T05:13:00.282Z,100480
2022-09-15T05:14:00.172Z,100480
2022-09-15T05:15:00.172Z,100480
2022-09-15T05:16:10.205Z,100470
2022-09-15T05:17:00.156Z,100470
2022-09-15T05:18:00.161Z,100480
2022-09-15T05:19:00.752Z,100480
2022-09-15T05:20:00.289Z,100480
2022-09-15T05:21:01.202Z,100480
2022-09-15T05:22:00.159Z,100480
2022-09-15T05:23:00.159Z,100480
2022-09-15T05:24:00.255Z,100480
2022-09-15T05:25:00.173Z,100480
2022-09-15T05:26:01.231Z,100480
2022-09-15T05:27:00.194Z,100480
2022-09-15T05:28:00.256Z,100490
2022-09-15T05:29:00.165Z,100490
2022-09-15T05:30:23.482Z,100490
2022-09-15T05:31:00.203Z,100490
2022-09-15T05:32:00.217Z,100490
2022-09-15T05:33:00.148Z,100490
2022-09-15T05:34:01.479Z,100490
2022-09-15T05:35:00.172Z,100490
2022-09-15T05:36:00.233Z,100490
2022-09-15T05:37:00.386Z,100490
2022-09-15T05:38:00.147Z,100490
2022-09-15T05:39:00.194Z,100490
2022-09-15T05:40:00.294Z,100490
2022-09-15T05:41:00.983Z,100490
2022-09-15T05:42:00.183Z,100500
2022-09-15T05:43:00.156Z,100500
2022-09-15T05:44:00.227Z,100500
2022-09-15T05:45:00.153Z,100500
2022-09-15T05:46:00.689Z,100510
2022-09-15T05:47:00.542Z,100510
2022-09-15T05:48:00.232Z,100510
2022-09-15T05:49:00.147Z,100510
2022-09-15T05:50:00.169Z,100510
2022-09-15T05:51:00.558Z,100510
2022-09-15T05:52:00.249Z,100510
2022-09-15T05:53:00.158Z,100510
2022-09-15T05:54:00.149Z,100510
2022-09-15T05:55:00.154Z,100510
2022-09-15T05:56:01.670Z,100510
2022-09-15T05:57:00.155Z,100510
2022-09-15T05:58:00.146Z,100510
2022-09-15T05:59:00.867Z,100510
2022-09-15T06:00:00.224Z,100500
2022-09-15T06:01:04.405Z,100500
2022-09-15T06:02:00.400Z,100500
2022-09-15T06:03:00.654Z,100500
2022-09-15T06:04:00.223Z,100510
2022-09-15T06:05:00.170Z,100510
2022-09-15T06:06:01.597Z,100510
2022-09-15T06:07:00.151Z,100510
2022-09-15T06:08:00.258Z,100520
2022-09-15T06:09:00.690Z,100520
2022-09-15T06:10:00.149Z,100520
2022-09-15T06:11:01.399Z,100520
2022-09-15T06:12:00.246Z,100510
2022-09-15T06:13:00.200Z,100510
2022-09-15T06:14:01.132Z,100520
2022-09-15T06:15:00.152Z,100520
2022-09-15T06:16:01.168Z,100520
2022-09-15T06:17:00.153Z,100520
2022-09-15T06:18:00.155Z,100510
2022-09-15T06:19:00.187Z,100510
2022-09-15T06:20:00.292Z,100520
2022-09-15T06:21:02.433Z,100520
2022-09-15T06:22:00.153Z,100520
2022-09-15T06:23:00.185Z,100520
2022-09-15T06:24:01.704Z,100520
2022-09-15T06:25:00.158Z,100520
2022-09-15T06:26:03.990Z,100520
2022-09-15T06:27:00.162Z,100520
2022-09-15T06:28:00.267Z,100530
2022-09-15T06:29:01.065Z,100530
2022-09-15T06:30:00.169Z,100530
2022-09-15T06:31:00.144Z,100530
2022-09-15T06:32:00.271Z,100530
2022-09-15T06:33:00.152Z,100530
2022-09-15T06:34:00.246Z,100530
2022-09-15T06:35:00.164Z,100530
2022-09-15T06:36:00.693Z,100540
2022-09-15T06:37:00.216Z,100540
2022-09-15T06:38:00.143Z,100540
2022-09-15T06:39:00.235Z,100540
2022-09-15T06:40:00.453Z,100540
2022-09-15T06:41:00.151Z,100540
2022-09-15T06:42:03.194Z,100540
2022-09-15T06:43:00.139Z,100540
2022-09-15T06:44:00.250Z,100550
2022-09-15T06:45:00.257Z,100550
2022-09-15T06:46:01.007Z,100550
2022-09-15T06:47:00.229Z,100550
2022-09-15T06:48:20.606Z,100550
2022-09-15T06:49:00.246Z,100550
2022-09-15T06:50:00.265Z,100550
2022-09-15T06:51:00.657Z,100550
2022-09-15T06:52:00.211Z,100560
2022-09-15T06:53:00.142Z,100560
2022-09-15T06:54:00.629Z,100560
2022-09-15T06:55:00.183Z,100560
2022-09-15T06:56:02.220Z,100560
2022-09-15T06:57:00.148Z,100560
2022-09-15T06:58:00.160Z,100560
2022-09-15T06:59:00.163Z,100560
2022-09-15T07:00:00.319Z,100570
2022-09-15T07:01:00.684Z,100570
2022-09-15T07:02:04.656Z,100570
2022-09-15T07:03:00.286Z,100570
2022-09-15T07:04:00.418Z,100570
2022-09-15T07:05:00.156Z,100570
2022-09-15T07:06:00.257Z,100570
2022-09-15T07:07:00.151Z,100570
2022-09-15T07:08:00.225Z,100580
2022-09-15T07:09:00.153Z,100580
2022-09-15T07:10:00.189Z,100570
2022-09-15T07:11:00.256Z,100570
2022-09-15T07:12:00.277Z,100570
2022-09-15T07:13:00.146Z,100570
2022-09-15T07:14:00.221Z,100580
2022-09-15T07:15:00.156Z,100580
2022-09-15T07:16:00.877Z,100580
2022-09-15T07:17:00.148Z,100580
2022-09-15T07:18:00.167Z,100580
2022-09-15T07:19:00.175Z,100580
2022-09-15T07:20:00.244Z,100580
2022-09-15T07:21:01.747Z,100580
2022-09-15T07:22:00.151Z,100570
2022-09-15T07:23:00.147Z,100570
2022-09-15T07:24:05.009Z,100570
2022-09-15T07:25:00.145Z,100570
2022-09-15T07:26:04.105Z,100570
2022-09-15T07:27:00.151Z,100570
2022-09-15T07:28:00.228Z,100570
2022-09-15T07:29:01.331Z,100570
2022-09-15T07:30:00.172Z,100580
2022-09-15T07:31:00.480Z,100580
2022-09-15T07:32:00.362Z,100580
2022-09-15T07:33:00.214Z,100580
2022-09-15T07:34:00.319Z,100580
2022-09-15T07:35:00.174Z,100580
2022-09-15T07:36:00.686Z,100580
2022-09-15T07:37:00.150Z,100580
2022-09-15T07:38:00.150Z,100580
2022-09-15T07:39:01.214Z,100580
2022-09-15T07:40:00.400Z,100580
2022-09-15T07:41:03.905Z,100580
2022-09-15T07:42:00.147Z,100580
2022-09-15T07:43:00.147Z,100580
2022-09-15T07:44:00.248Z,100590
2022-09-15T07:45:00.173Z,100590
2022-09-15T07:46:00.604Z,100590
2022-09-15T07:47:00.165Z,100590
2022-09-15T07:48:00.339Z,100590
2022-09-15T07:49:00.173Z,100590
2022-09-15T07:50:00.212Z,100600
2022-09-15T07:51:00.233Z,100600
2022-09-15T07:52:00.221Z,100600
2022-09-15T07:53:00.152Z,100600
2022-09-15T07:54:00.159Z,100600
2022-09-15T07:55:00.140Z,100600
2022-09-15T07:56:00.213Z,100600
2022-09-15T07:57:00.390Z,100600
2022-09-15T07:58:00.438Z,100600
2022-09-15T07:59:00.152Z,100600
2022-09-15T08:00:00.277Z,100600
2022-09-15T08:01:01.458Z,100600
2022-09-15T08:02:00.249Z,100600
2022-09-15T08:03:00.144Z,100600
2022-09-15T08:04:00.235Z,100600
2022-09-15T08:05:00.146Z,100600
2022-09-15T08:06:01.152Z,100600
2022-09-15T08:07:00.150Z,100600
2022-09-15T08:08:00.213Z,100610
2022-09-15T08:09:01.144Z,100610
2022-09-15T08:10:00.159Z,100610
2022-09-15T08:11:04.122Z,100610
2022-09-15T08:12:00.223Z,100610
2022-09-15T08:13:00.407Z,100610
2022-09-15T08:14:00.244Z,100620
2022-09-15T08:15:00.157Z,100620
2022-09-15T08:16:03.944Z,100620
2022-09-15T08:17:00.509Z,100620
2022-09-15T08:18:00.147Z,100620
2022-09-15T08:19:00.529Z,100620
2022-09-15T08:20:00.250Z,100620
2022-09-15T08:21:05.352Z,100620
2022-09-15T08:22:00.357Z,100620
2022-09-15T08:23:00.689Z,100620
2022-09-15T08:24:00.188Z,100620
2022-09-15T08:25:00.152Z,100620
2022-09-15T08:26:00.269Z,100620
2022-09-15T08:27:00.164Z,100620
2022-09-15T08:28:00.216Z,100620
2022-09-15T08:29:00.143Z,100620
2022-09-15T08:30:00.428Z,100620
2022-09-15T08:31:01.214Z,100620
2022-09-15T08:32:00.233Z,100620
2022-09-15T08:33:00.167Z,100620
2022-09-15T08:34:00.160Z,100630
2022-09-15T08:35:00.155Z,100630
2022-09-15T08:36:01.886Z,100620
2022-09-15T08:37:00.153Z,100620
2022-09-15T08:38:00.141Z,100630
2022-09-15T08:39:00.146Z,100630
2022-09-15T08:40:00.407Z,100630
2022-09-15T08:41:03.548Z,100630
2022-09-15T08:42:00.851Z,100630
2022-09-15T08:43:10.092Z,100640
2022-09-15T08:44:00.143Z,100640
2022-09-15T08:45:02.346Z,100640
2022-09-15T08:46:03.232Z,100640
2022-09-15T08:47:07.522Z,100640
2022-09-15T08:48:02.266Z,100640
2022-09-15T08:49:04.101Z,100640
2022-09-15T08:50:03.597Z,100650
2022-09-15T08:51:03.225Z,100650
2022-09-15T08:52:03.823Z,100650
2022-09-15T08:53:00.125Z,100650
2022-09-15T08:54:04.521Z,100650
2022-09-15T08:55:03.509Z,100650
2022-09-15T08:56:02.247Z,100650
2022-09-15T08:57:00.242Z,100650
2022-09-15T08:58:00.160Z,100650
2022-09-15T08:59:00.283Z,100650
2022-09-15T09:00:00.248Z,100650
2022-09-15T09:01:01.132Z,100650
2022-09-15T09:02:10.191Z,100660
2022-09-15T09:03:07.080Z,100660
2022-09-15T09:04:10.090Z,100660
2022-09-15T09:05:10.089Z,100660
2022-09-15T09:06:00.133Z,100660
2022-09-15T09:07:07.614Z,100660
2022-09-15T09:08:10.093Z,100660
2022-09-15T09:09:10.088Z,100670
2022-09-15T09:10:01.142Z,100670
2022-09-15T09:11:10.090Z,100670
2022-09-15T09:12:10.090Z,100670
2022-09-15T09:13:07.342Z,100670
2022-09-15T09:14:09.600Z,100670
2022-09-15T09:15:00.143Z,100670
2022-09-15T09:16:00.254Z,100670
2022-09-15T09:17:10.086Z,100680
2022-09-15T09:18:03.386Z,100680
2022-09-15T09:19:04.738Z,100680
2022-09-15T09:20:09.342Z,100670
2022-09-15T09:21:00.142Z,100670
2022-09-15T09:22:04.414Z,100680
2022-09-15T09:23:02.400Z,100680
2022-09-15T09:24:03.109Z,100680
2022-09-15T09:25:11.522Z,100680
2022-09-15T09:26:00.271Z,100680
2022-09-15T09:27:00.253Z,100680
2022-09-15T09:28:00.725Z,100680
2022-09-15T09:29:07.146Z,100680
2022-09-15T09:30:01.620Z,100680
2022-09-15T09:31:01.724Z,100680
2022-09-15T09:32:01.202Z,100680
2022-09-15T09:33:10.091Z,100680
2022-09-15T09:34:08.991Z,100680
2022-09-15T09:35:01.885Z,100680
2022-09-15T09:36:00.219Z,100680
2022-09-15T09:37:07.669Z,100680
2022-09-15T09:38:00.615Z,100680
2022-09-15T09:39:01.042Z,100680
2022-09-15T09:40:00.413Z,100670
2022-09-15T09:41:02.573Z,100670
2022-09-15T09:42:01.472Z,100670
2022-09-15T09:43:00.157Z,100670
2022-09-15T09:44:01.260Z,100670
2022-09-15T09:45:00.179Z,100670
2022-09-15T09:46:00.247Z,100670
2022-09-15T09:47:00.413Z,100670
2022-09-15T09:48:02.731Z,100670
2022-09-15T09:49:02.951Z,100670
2022-09-15T09:50:00.223Z,100670
2022-09-15T09:51:00.165Z,100670
2022-09-15T09:52:01.017Z,100680
2022-09-15T09:53:10.091Z,100680
2022-09-15T09:54:04.710Z,100680
2022-09-15T09:55:00.882Z,100680
2022-09-15T09:56:10.091Z,100680
2022-09-15T09:57:10.089Z,100680
2022-09-15T09:58:10.079Z,100680
2022-09-15T09:59:00.623Z,100680
2022-09-15T10:00:00.275Z,100680
2022-09-15T10:01:07.723Z,100680
2022-09-15T10:02:10.099Z,100680
2022-09-15T10:03:08.971Z,100680
2022-09-15T10:04:10.091Z,100680
2022-09-15T10:05:03.415Z,100680
2022-09-15T10:06:04.013Z,100680
2022-09-15T10:07:00.159Z,100680
2022-09-15T10:08:01.147Z,100680
2022-09-15T10:09:01.341Z,100680
2022-09-15T10:10:00.668Z,100680
2022-09-15T10:11:02.908Z,100680
2022-09-15T10:12:01.408Z,100690
2022-09-15T10:13:01.493Z,100690
2022-09-15T10:14:00.686Z,100680
2022-09-15T10:16:01.266Z,100680
2022-09-15T10:24:10.087Z,100670
2022-09-15T10:25:01.397Z,100670
2022-09-15T10:26:10.099Z,100680
2022-09-15T10:27:10.088Z,100680
2022-09-15T10:28:01.150Z,100680
2022-09-15T10:29:10.091Z,100680
2022-09-15T10:30:10.096Z,100680
2022-09-15T10:31:05.152Z,100680
2022-09-15T10:32:10.139Z,100680
2022-09-15T10:33:10.087Z,100690
2022-09-15T10:34:10.089Z,100690
2022-09-15T10:35:03.441Z,100690
2022-09-15T10:36:02.575Z,100700
2022-09-15T10:37:04.998Z,100700
2022-09-15T10:38:03.539Z,100710
2022-09-15T10:39:10.093Z,100700
2022-09-15T10:40:06.317Z,100700
2022-09-15T10:41:01.152Z,100700
2022-09-15T10:42:01.138Z,100700
2022-09-15T10:43:10.086Z,100700
2022-09-15T10:44:03.392Z,100700
2022-09-15T10:45:00.136Z,100700
2022-09-15T10:46:10.157Z,100700
2022-09-15T10:47:10.089Z,100690
2022-09-15T10:48:00.133Z,100690
2022-09-15T10:49:10.090Z,100690
2022-09-15T10:50:10.098Z,100690
2022-09-15T10:51:08.048Z,100700
2022-09-15T10:52:03.392Z,100700
2022-09-15T10:53:10.096Z,100700
2022-09-15T10:54:10.088Z,100700
2022-09-15T10:55:10.109Z,100700
2022-09-15T10:56:10.093Z,100700
2022-09-15T10:57:07.768Z,100690
2022-09-15T10:58:10.091Z,100690
2022-09-15T10:59:10.091Z,100690
2022-09-15T11:00:01.140Z,100690
2022-09-15T11:01:08.422Z,100690
2022-09-15T11:02:01.272Z,100690
2022-09-15T11:03:00.139Z,100690
2022-09-15T11:04:01.136Z,100690
2022-09-15T11:05:08.660Z,100690
2022-09-15T11:06:07.202Z,100690
2022-09-15T11:07:01.142Z,100690
2022-09-15T11:08:00.128Z,100690
2022-09-15T11:09:08.653Z,100680
2022-09-15T11:10:07.391Z,100680
2022-09-15T11:11:10.093Z,100690
2022-09-15T11:12:00.140Z,100690
2022-09-15T11:13:03.390Z,100690
2022-09-15T11:14:10.087Z,100690
2022-09-15T11:15:10.114Z,100690
2022-09-15T11:16:10.137Z,100690
2022-09-15T11:17:10.089Z,100680
2022-09-15T11:18:10.093Z,100680
2022-09-15T11:19:09.421Z,100690
2022-09-15T11:20:10.105Z,100690
2022-09-15T11:21:01.138Z,100690
2022-09-15T11:22:07.773Z,100690
2022-09-15T11:23:01.151Z,100690
2022-09-15T11:24:03.392Z,100690
2022-09-15T11:25:04.081Z,100690
2022-09-15T11:26:04.751Z,100680
2022-09-15T11:27:10.098Z,100690
2022-09-15T11:28:08.233Z,100690
2022-09-15T11:29:04.508Z,100690
2022-09-15T11:30:04.619Z,100690
2022-09-15T11:31:03.100Z,100690
2022-09-15T11:32:04.928Z,100690
2022-09-15T11:33:03.973Z,100690
2022-09-15T11:34:10.092Z,100690
2022-09-15T11:35:06.853Z,100690
2022-09-15T11:36:01.152Z,100690
2022-09-15T11:37:05.665Z,100690
2022-09-15T11:38:12.952Z,100700
2022-09-15T11:39:10.092Z,100700
2022-09-15T11:40:06.246Z,100700
2022-09-15T11:41:10.094Z,100700
2022-09-15T11:42:03.258Z,100700
2022-09-15T11:43:04.912Z,100700
2022-09-15T11:44:00.129Z,100700
2022-09-15T11:45:00.321Z,100700
2022-09-15T11:46:01.743Z,100690
2022-09-15T11:47:10.089Z,100700
2022-09-15T11:48:07.891Z,100700
2022-09-15T11:49:03.153Z,100700
2022-09-15T11:50:01.144Z,100690
2022-09-15T11:51:01.047Z,100690
2022-09-15T11:52:05.524Z,100690
2022-09-15T11:53:03.348Z,100690
2022-09-15T11:54:10.098Z,100700
2022-09-15T11:55:05.987Z,100700
2022-09-15T11:56:08.520Z,100690
2022-09-15T11:57:00.352Z,100690
2022-09-15T11:58:10.096Z,100690
2022-09-15T11:59:00.136Z,100690
2022-09-15T12:00:04.327Z,100690
2022-09-15T12:01:10.092Z,100690
2022-09-15T12:02:08.016Z,100690
2022-09-15T12:03:01.197Z,100690
2022-09-15T12:04:03.027Z,100680
2022-09-15T12:05:05.114Z,100680
2022-09-15T12:06:06.070Z,100680
2022-09-15T12:07:13.708Z,100680
2022-09-15T12:08:03.689Z,100680
2022-09-15T12:09:01.409Z,100680
2022-09-15T12:10:05.738Z,100680
2022-09-15T12:11:02.049Z,100680
2022-09-15T12:12:02.476Z,100680
2022-09-15T12:13:00.357Z,100680
2022-09-15T12:14:01.796Z,100680
2022-09-15T12:15:00.160Z,100680
2022-09-15T12:16:00.676Z,100680
2022-09-15T12:17:00.845Z,100680
2022-09-15T12:18:03.547Z,100670
2022-09-15T12:19:04.884Z,100670
2022-09-15T12:20:03.673Z,100670
2022-09-15T12:21:07.511Z,100660
2022-09-15T12:22:10.093Z,100660
2022-09-15T12:23:10.092Z,100660
2022-09-15T12:24:10.101Z,100660
2022-09-15T12:25:10.092Z,100660
2022-09-15T12:26:10.093Z,100660
2022-09-15T12:27:00.430Z,100660
2022-09-15T12:28:10.090Z,100660
2022-09-15T12:29:01.500Z,100660
2022-09-15T12:30:00.306Z,100650
2022-09-15T12:31:10.141Z,100660
2022-09-15T12:32:10.088Z,100660
2022-09-15T12:33:10.089Z,100650
2022-09-15T12:34:01.475Z,100650
2022-09-15T12:35:01.141Z,100650
2022-09-15T12:36:10.089Z,100650